Tiempo atmosférico en la estación meteorológica de Cenicero, La Rioja (429 m.)

Fecha
DESCASC
Temp. máxima en grados centígrados (hora)
DESCASC
Temp. mínima en grados centígrados (hora)
DESCASC
Temp. media en grados centígrados
DESCASC
Racha de viento máxima en m/sg (hora)
DESCASC
Velocidad máxima media en intervalos de 10 minutos(hora)
DESCASC
Precipitaciones diarias en mm
DESCASC
Precipitaciones de 00:00 a 06:00 en mm
DESCASC
Precipitaciones de 06:00 a 12:00 en mm
DESCASC
Precipitaciones de 12:00 a 18:00 en mm
DESCASC
Precipitaciones de 18:00 a 24:00 en mm
DESCASC
23-11-2017 14.8 (15:40) 5.9 (05:20) 10.4 6.67 (07:50) 3.61 (11:40) 0 0 0 0 0
22-11-2017 11.8 (15:20) -2.5 (07:10) 4.7 8.06 (14:00) 3.89 (14:20) 0 0 0 0 0
21-11-2017 16.1 (16:40) -2.1 (08:30) 7 3.61 (18:20) 2.22 (16:50) 0 0 0 0 0
20-11-2017 16.3 (15:40) 0.7 (08:10) 8.5 4.17 (00:40) 2.22 (01:20) 0 0 0 0 0
19-11-2017 13.9 (16:40) 0 (00:00) 6.9 6.11 (15:20) 3.33 (10:00) 0 0 0 0 0
18-11-2017 13.9 (16:40) 4.1 (00:00) 9 7.22 (13:40) 3.89 (14:10) 0 0 0 0 0
17-11-2017 16.9 (15:40) 1.8 (00:00) 9.3 6.39 (12:10) 3.33 (12:10) 0 0 0 0 0
16-11-2017 18.1 (15:40) 0.3 (00:00) 9.2 4.72 (19:50) 2.5 (14:50) 0 0 0 0 0
15-11-2017 14.3 (16:50) 0.7 (00:00) 7.5 7.5 (13:50) 4.72 (13:00) 0 0 0 0 0
14-11-2017 10.5 (16:40) 3.8 (00:00) 7.1 8.61 (15:10) 4.72 (15:00) 0 0 0 0 0
13-11-2017 12.6 (00:00) 6.3 (00:00) 9.5 10.56 (01:00) 5.83 (01:30) 1.6 0.8 0.8 0 0
12-11-2017 16 (15:30) 6.5 (00:00) 11.3 10.56 (22:10) 5.83 (12:40) 0 0 0 0 0
11-11-2017 15 (16:40) 7 (00:00) 11 8.61 (12:20) 4.72 (13:10) 0 0 0 0 0
10-11-2017 13 (15:40) 6.1 (00:00) 9.5 8.61 (16:00) 5.56 (16:00) 0.8 0.2 0.4 0.2 0
09-11-2017 10.8 (13:40) 4 (00:00) 7.4 8.89 (14:50) 5.28 (14:10) 0.2 0 0.2 0 0
08-11-2017 10.3 (00:00) 3.9 (00:00) 7.1 8.61 (13:30) 5 (10:40) 4 0 0 3.2 0.8
07-11-2017 14.9 (16:40) 4.9 (00:00) 9.9 9.17 (23:59) 4.44 (23:59) 0 0 0 0 0
06-11-2017 11 (13:00) 6.5 (00:00) 8.8 10.28 (14:30) 5.83 (16:10) 2.2 1 1 0.2 0
05-11-2017 12.3 (13:00) 8.3 (00:00) 10.3 11.39 (18:00) 6.39 (14:20) 1 0.2 0.4 0 0.4
04-11-2017 15.6 (16:20) 7.1 (00:00) 11.4 7.5 (19:30) 3.89 (19:40) 1 0 0.2 0 0.8
03-11-2017 18.7 (14:40) 10.2 (00:00) 14.5 7.78 (20:40) 3.06 (07:40) 0.8 0 0 0 0.8
02-11-2017 17.3 (16:10) 10.7 (01:50) 14 8.06 (11:50) 4.72 (11:50) 0 0 0 0 0
01-11-2017 17.1 (16:40) 6.2 (00:00) 11.7 6.67 (17:10) 3.61 (14:30) 0 0 0 0 0
31-10-2017 15.6 (16:40) 4.4 (00:00) 10 6.39 (16:00) 3.33 (15:50) 0 0 0 0 0
30-10-2017 16.8 (14:20) 7.5 (00:00) 12.1 8.61 (19:20) 5 (13:50) 0 0 0 0 0
29-10-2017 16.6 (13:30) 8.2 (00:00) 12.4 9.44 (13:10) 4.72 (12:10) 0 0 0 0 0
28-10-2017 18.2 (16:10) 11.3 (00:00) 14.8 8.06 (13:50) 4.44 (16:30) 0 0 0 0 0
27-10-2017 20.7 (15:50) 8.8 (00:00) 14.8 8.33 (15:30) 5.28 (15:30) 0 0 0 0 0
26-10-2017 27 (17:40) 5.9 (00:00) 16.5 3.61 (15:40) 1.67 (15:40) 0 0 0 0 0
25-10-2017 22.7 (16:40) 5.1 (00:00) 13.9 5.83 (17:50) 3.06 (17:50) 0 0 0 0 0

Gráficas

Temp. máximas Temp. mínimas Temp. medias Precipitaciones Rachas de viento máximas Velocidades máximas media en intervalos de 10 minutos

Datos horarios

Fecha y hora oficial Temperatura (ºC) Velocidad del viento (km/h) Dirección del viento Racha (km/h) Dirección de racha Precipitación (mm) Presión (hPa) Tendencia (hPa) Humedad (%)
2017-11-23 23:00:00 8.7 0 Calma 8 Nordeste 0 -- -- 74
2017-11-23 22:00:00 8.6 3 Este 6 Este 0 -- -- 74
2017-11-23 21:00:00 9.6 0 Calma 9 Este 0 -- -- 70
2017-11-23 20:00:00 11.2 5 Este 13 Nordeste 0 -- -- 64
2017-11-23 19:00:00 11.8 0 Calma 9 Este 0 -- -- 61
2017-11-23 18:00:00 13.1 4 Este 9 Este 0 -- -- 57
2017-11-23 17:00:00 14.5 3 Nordeste 9 Este 0 -- -- 52
2017-11-23 16:00:00 14.8 5 Este 12 Este 0 -- -- 51
2017-11-23 15:00:00 14.4 8 Este 17 Sudeste 0 -- -- 52
2017-11-23 14:00:00 14 10 Este 20 Este 0 -- -- 53
2017-11-23 13:00:00 13.1 11 Este 20 Sudeste 0 -- -- 55
2017-11-23 12:00:00 12 9 Este 21 Sudeste 0 -- -- 59
2017-11-23 11:00:00 10.8 12 Este 19 Sudeste 0 -- -- 63
2017-11-23 10:00:00 8.2 8 Este 18 Nordeste 0 -- -- 70
2017-11-23 09:00:00 7.7 5 Nordeste 18 Sur 0 -- -- 72
2017-11-23 08:00:00 8 6 Este 24 Sudeste 0 -- -- 66
2017-11-23 07:00:00 6.8 4 Este 13 Sudeste 0 -- -- 68
2017-11-23 06:00:00 6.5 3 Oeste 13 Este 0 -- -- 68
2017-11-23 05:00:00 6.5 5 Nordeste 18 Este 0 -- -- 67
2017-11-23 04:00:00 7.2 6 Nordeste 19 Nordeste 0 -- -- 66
2017-11-23 03:00:00 7 5 Este 18 Nordeste 0 -- -- 66
2017-11-23 02:00:00 8.1 6 Este 21 Sudeste 0 -- -- 61
2017-11-23 01:00:00 8.2 8 Este 24 Este 0 -- -- 61
2017-11-23 00:00:00 8 4 Sudeste 22 Nordeste 0 -- -- 59
2017-11-22 23:00:00 8.1 4 Este 11 Sudeste 0 -- -- 59
2017-11-22 22:00:00 6.3 8 Este 13 Este 0 -- -- 65
2017-11-22 21:00:00 6.8 4 Este 11 Este 0 -- -- 62
2017-11-22 20:00:00 7.7 4 Este 11 Este 0 -- -- 59
2017-11-22 19:00:00 9.4 7 Sudeste 17 Sudeste 0 -- -- 52
2017-11-22 18:00:00 10 5 Sudeste 14 Este 0 -- -- 50
2017-11-22 17:00:00 11.6 9 Sudeste 20 Sudeste 0 -- -- 46
2017-11-22 16:00:00 11.7 11 Este 26 Este 0 -- -- 44
2017-11-22 15:00:00 11.6 12 Este 24 Este 0 -- -- 45
2017-11-22 14:00:00 11 13 Este 29 Este 0 -- -- 47
2017-11-22 13:00:00 10.1 11 Este 23 Sudeste 0 -- -- 53
2017-11-22 12:00:00 8.5 12 Este 19 Este 0 -- -- 61
2017-11-22 11:00:00 3.7 0 Calma 7 Oeste 0 -- -- 78
2017-11-22 10:00:00 -0.8 3 Oeste 6 Oeste 0 -- -- 97
2017-11-22 09:00:00 -2.3 0 Calma 5 Este 0 -- -- 95
2017-11-22 08:00:00 -2.3 0 Calma 10 Oeste 0 -- -- 95
2017-11-22 07:00:00 -2.4 3 Oeste 7 Sudoeste 0 -- -- 94
2017-11-22 06:00:00 -2.1 3 Sudeste 4 Sudeste 0 -- -- 93
2017-11-22 05:00:00 -1.7 0 Calma 5 Sudoeste 0 -- -- 92
2017-11-22 04:00:00 -1.1 0 Calma 6 Oeste 0 -- -- 92
2017-11-22 03:00:00 -0.7 3 Sudoeste 6 Sudoeste 0 -- -- 90
2017-11-22 02:00:00 0 0 Calma 5 Sudoeste 0 -- -- 86
2017-11-22 01:00:00 0.9 2 Oeste 5 Sudoeste 0 -- -- 84
2017-11-22 00:00:00 2.1 2 Oeste 6 Oeste 0 -- -- 80
2017-11-21 23:00:00 3.1 0 Calma 8 Oeste 0 -- -- 74
2017-11-21 22:00:00 4.1 3 Sudoeste 6 Sudoeste 0 -- -- 68
2017-11-21 21:00:00 6 4 Sudoeste 6 Sudoeste 0 -- -- 61
2017-11-21 20:00:00 8.3 0 Calma 5 Este 0 -- -- 54
2017-11-21 19:00:00 11.1 3 Este 13 Este 0 -- -- 45
2017-11-21 18:00:00 13.3 4 Este 9 Este 0 -- -- 39
2017-11-21 17:00:00 15.7 5 Este 12 Este 0 -- -- 34
2017-11-21 16:00:00 15.6 3 Sudeste 5 Sudeste 0 -- -- 35
2017-11-21 15:00:00 14.5 0 Calma 7 Oeste 0 -- -- 36
2017-11-21 14:00:00 13.5 4 Oeste 11 Oeste 0 -- -- 37
2017-11-21 13:00:00 11.6 3 Noroeste 6 Oeste 0 -- -- 44
2017-11-21 12:00:00 9.3 3 Oeste 6 Oeste 0 -- -- 58
2017-11-21 11:00:00 4.8 0 Calma 3 Noroeste 0 -- -- 78
2017-11-21 10:00:00 0.1 0 Calma 2 Noroeste 0 -- -- 97
2017-11-21 09:00:00 -2 0 Calma 2 Oeste 0 -- -- 95
2017-11-21 08:00:00 -2 0 Calma 4 Oeste 0 -- -- 94
2017-11-21 07:00:00 -1.6 2 Oeste 6 Sudoeste 0 -- -- 94
2017-11-21 06:00:00 -1 0 Calma 4 Sudoeste 0 -- -- 93
2017-11-21 05:00:00 -0.3 0 Calma 5 Sudoeste 0 -- -- 88
2017-11-21 04:00:00 0.4 0 Calma 4 Sudoeste 0 -- -- 86
2017-11-21 03:00:00 1.2 3 Oeste 6 Oeste 0 -- -- 88
2017-11-21 02:00:00 1.4 0 Calma 4 Oeste 0 -- -- 86
2017-11-21 01:00:00 2.5 2 Oeste 6 Sudoeste 0 -- -- 83
2017-11-21 00:00:00 3.4 0 Calma 7 Sudoeste 0 -- -- 82
2017-11-20 23:00:00 3.9 4 Oeste 6 Oeste 0 -- -- 81
2017-11-20 22:00:00 4.8 0 Calma 6 Sudoeste 0 -- -- 73
2017-11-20 21:00:00 6.5 4 Sudoeste 7 Sudoeste 0 -- -- 66
2017-11-20 20:00:00 8.5 2 Sudoeste 5 Sudoeste 0 -- -- 61
2017-11-20 19:00:00 10.6 0 Calma 5 Sur 0 -- -- 56
2017-11-20 18:00:00 13.6 3 Sudoeste 11 Sudoeste 0 -- -- 47
2017-11-20 17:00:00 15.9 3 Sudoeste 8 Oeste 0 -- -- 43
2017-11-20 16:00:00 16 4 Oeste 9 Noroeste 0 -- -- 42
2017-11-20 15:00:00 15.6 4 Noroeste 12 Noroeste 0 -- -- 44
2017-11-20 14:00:00 14.4 6 Noroeste 14 Oeste 0 -- -- 46
2017-11-20 13:00:00 12 3 Oeste 10 Oeste 0 -- -- 51
2017-11-20 12:00:00 10.8 5 Noroeste 11 Oeste 0 -- -- 55
2017-11-20 11:00:00 7.3 5 Noroeste 9 Noroeste 0 -- -- 65
2017-11-20 10:00:00 3.5 4 Noroeste 8 Noroeste 0 -- -- 79
2017-11-20 09:00:00 0.9 3 Noroeste 12 Oeste 0 -- -- 84
2017-11-20 08:00:00 0.8 3 Oeste 9 Oeste 0 -- -- 85
2017-11-20 07:00:00 0.9 4 Oeste 11 Oeste 0 -- -- 84
2017-11-20 06:00:00 1 7 Noroeste 12 Oeste 0 -- -- 84
2017-11-20 05:00:00 1.4 7 Noroeste 11 Noroeste 0 -- -- 81
2017-11-20 04:00:00 1.4 5 Noroeste 10 Oeste 0 -- -- 81
2017-11-20 03:00:00 1.8 3 Oeste 6 Oeste 0 -- -- 81
2017-11-20 02:00:00 2.9 4 Noroeste 13 Oeste 0 -- -- 77
2017-11-20 01:00:00 3.8 6 Oeste 15 Noroeste 0 -- -- 68
2017-11-20 00:00:00 3.7 4 Oeste 8 Noroeste 0 -- -- 68
2017-11-19 23:00:00 4.3 3 Oeste 7 Noroeste 0 -- -- 68
2017-11-19 22:00:00 6.1 3 Oeste 14 Sudoeste 0 -- -- 57
2017-11-19 21:00:00 7.9 10 Sudoeste 18 Sudoeste 0 -- -- 51
2017-11-19 20:00:00 8.7 8 Sudoeste 20 Sudoeste 0 -- -- 50
2017-11-19 19:00:00 9.5 9 Sudoeste 17 Sudoeste 0 -- -- 51
2017-11-19 18:00:00 11.2 5 Sudoeste 12 Sudoeste 0 -- -- 50
2017-11-19 17:00:00 13.9 6 Sudoeste 17 Oeste 0 -- -- 42
2017-11-19 16:00:00 13.7 10 Oeste 22 Oeste 0 -- -- 40
2017-11-19 15:00:00 12.9 10 Oeste 18 Sudoeste 0 -- -- 36
2017-11-19 14:00:00 11.2 9 Oeste 15 Noroeste 0 -- -- 50
2017-11-19 13:00:00 9.3 8 Noroeste 17 Oeste 0 -- -- 64
2017-11-19 12:00:00 7.5 4 Oeste 14 Noroeste 0 -- -- 71
2017-11-19 11:00:00 5.4 7 Noroeste 17 Oeste 0 -- -- 77
2017-11-19 10:00:00 3.1 12 Oeste 17 Oeste 0 -- -- 84
2017-11-19 09:00:00 0.5 6 Oeste 12 Noroeste 0 -- -- 91
2017-11-19 08:00:00 0.4 0 Calma 9 Oeste 0 -- -- 91
2017-11-19 07:00:00 1.3 0 Calma 9 Oeste 0 -- -- 91
2017-11-19 06:00:00 2.4 4 Noroeste 14 Sudoeste 0 -- -- 87
2017-11-19 05:00:00 2.1 4 Oeste 10 Noroeste 0 -- -- 92
2017-11-19 04:00:00 3 5 Noroeste 12 Sudoeste 0 -- -- 89
2017-11-19 03:00:00 4.3 4 Sudoeste 16 Sudoeste 0 -- -- 84
2017-11-19 02:00:00 4.9 8 Sudoeste 19 Sudoeste 0 -- -- 87
2017-11-19 01:00:00 5 8 Sudoeste 17 Sudoeste 0 -- -- 85
2017-11-19 00:00:00 6.4 8 Sudoeste 17 Oeste 0 -- -- 85
2017-11-18 23:00:00 6.3 8 Sudoeste 15 Sudoeste 0 -- -- 86
2017-11-18 22:00:00 7.3 7 Sudoeste 21 Oeste 0 -- -- 83
2017-11-18 21:00:00 7.5 6 Sudoeste 17 Sudoeste 0 -- -- 82
2017-11-18 20:00:00 8 8 Sudoeste 17 Sudoeste 0 -- -- 80
2017-11-18 19:00:00 9.1 2 Sudoeste 12 Oeste 0 -- -- 73
2017-11-18 18:00:00 11.3 6 Oeste 12 Oeste 0 -- -- 64
2017-11-18 17:00:00 13.9 6 Oeste 16 Noroeste 0 -- -- 54
2017-11-18 16:00:00 13.7 9 Oeste 22 Sudoeste 0 -- -- 56
2017-11-18 15:00:00 13.2 9 Oeste 25 Sudoeste 0 -- -- 62
2017-11-18 14:00:00 12.3 10 Sudoeste 26 Sudoeste 0 -- -- 68
2017-11-18 13:00:00 11.8 12 Oeste 24 Sudoeste 0 -- -- 69
2017-11-18 12:00:00 11.4 10 Oeste 22 Oeste 0 -- -- 70
2017-11-18 11:00:00 10.2 9 Oeste 22 Sudoeste 0 -- -- 74
2017-11-18 10:00:00 7.9 7 Sudoeste 21 Sudoeste 0 -- -- 82
2017-11-18 09:00:00 5.2 11 Sudoeste 21 Sudoeste 0 -- -- 87
2017-11-18 08:00:00 4.2 10 Sudoeste 18 Sudoeste 0 -- -- 88
2017-11-18 07:00:00 4.9 6 Sudoeste 16 Oeste 0 -- -- 85
2017-11-18 06:00:00 4.6 4 Sudoeste 9 Sudoeste 0 -- -- 86
2017-11-18 05:00:00 5.1 4 Oeste 20 Sur 0 -- -- 84
2017-11-18 04:00:00 6 7 Sudoeste 20 Sudoeste 0 -- -- 83
2017-11-18 03:00:00 6.1 6 Sudoeste 15 Sudoeste 0 -- -- 87
2017-11-18 02:00:00 6.2 9 Sudoeste 20 Sudoeste 0 -- -- 83
2017-11-18 01:00:00 6.9 6 Sudoeste 18 Oeste 0 -- -- 80
2017-11-18 00:00:00 7.7 9 Sudoeste 18 Sudoeste 0 -- -- 84
2017-11-17 23:00:00 7.9 9 Sudoeste 19 Sudoeste 0 -- -- 83
2017-11-17 22:00:00 8.6 10 Sudoeste 19 Sudoeste 0 -- -- 80
2017-11-17 21:00:00 9.3 7 Sudoeste 16 Sudoeste 0 -- -- 75
2017-11-17 20:00:00 10.3 3 Sudoeste 18 Sudoeste 0 -- -- 67
2017-11-17 19:00:00 11.5 7 Sudoeste 16 Oeste 0 -- -- 57
2017-11-17 18:00:00 13.5 8 Sudoeste 16 Oeste 0 -- -- 51
2017-11-17 17:00:00 16.3 9 Sudoeste 22 Oeste 0 -- -- 42
2017-11-17 16:00:00 16.8 9 Oeste 19 Sudoeste 0 -- -- 39
2017-11-17 15:00:00 16.2 9 Oeste 19 Oeste 0 -- -- 40
2017-11-17 14:00:00 15.2 9 Oeste 19 Oeste 0 -- -- 41
2017-11-17 13:00:00 13.9 9 Oeste 23 Oeste 0 -- -- 47
2017-11-17 12:00:00 13 9 Oeste 17 Sudoeste 0 -- -- 50
2017-11-17 11:00:00 8.6 4 Noroeste 9 Oeste 0 -- -- 71
2017-11-17 10:00:00 4.2 3 Oeste 9 Oeste 0 -- -- 85
2017-11-17 09:00:00 2.1 3 Oeste 9 Oeste 0 -- -- 89
2017-11-17 08:00:00 2 3 Noroeste 12 Noroeste 0 -- -- 89
2017-11-17 07:00:00 2.6 5 Oeste 11 Oeste 0 -- -- 89
2017-11-17 06:00:00 2.3 4 Oeste 8 Oeste 0 -- -- 89
2017-11-17 05:00:00 2.8 2 Oeste 9 Oeste 0 -- -- 87
2017-11-17 04:00:00 3.4 7 Oeste 13 Noroeste 0 -- -- 85
2017-11-17 03:00:00 4.1 6 Oeste 10 Oeste 0 -- -- 83
2017-11-17 02:00:00 3.9 0 Calma 7 Oeste 0 -- -- 84
2017-11-17 01:00:00 4.3 3 Oeste 6 Oeste 0 -- -- 82
2017-11-17 00:00:00 5.2 0 Calma 5 Oeste 0 -- -- 78
2017-11-16 23:00:00 6.6 3 Noroeste 5 Oeste 0 -- -- 72
2017-11-16 22:00:00 8.1 2 Noroeste 5 Noroeste 0 -- -- 65
2017-11-16 21:00:00 10.4 3 Oeste 8 Oeste 0 -- -- 55
2017-11-16 20:00:00 12.4 4 Oeste 17 Sudoeste 0 -- -- 48
2017-11-16 19:00:00 13.1 8 Sudoeste 14 Sudoeste 0 -- -- 48
2017-11-16 18:00:00 15.1 5 Sudoeste 12 Oeste 0 -- -- 45
2017-11-16 17:00:00 18.1 4 Oeste 10 Oeste 0 -- -- 35
2017-11-16 16:00:00 17.8 6 Oeste 10 Oeste 0 -- -- 34
2017-11-16 15:00:00 17.4 6 Oeste 14 Oeste 0 -- -- 36
2017-11-16 14:00:00 15.7 4 Noroeste 10 Oeste 0 -- -- 47
2017-11-16 13:00:00 13.8 4 Noroeste 12 Noroeste 0 -- -- 51
2017-11-16 12:00:00 11.4 8 Noroeste 12 Noroeste 0 -- -- 57
2017-11-16 11:00:00 7.6 6 Noroeste 12 Noroeste 0 -- -- 68
2017-11-16 10:00:00 4 5 Noroeste 12 Noroeste 0 -- -- 79
2017-11-16 09:00:00 0.8 4 Oeste 8 Oeste 0 -- -- 91
2017-11-16 08:00:00 0.3 0 Calma 7 Oeste 0 -- -- 90
2017-11-16 07:00:00 0.8 2 Oeste 5 Oeste 0 -- -- 89
2017-11-16 06:00:00 1 3 Oeste 6 Noroeste 0 -- -- 88
2017-11-16 05:00:00 1.2 0 Calma 6 Oeste 0 -- -- 88
2017-11-16 04:00:00 1.4 0 Calma 4 Noroeste 0 -- -- 87
2017-11-16 03:00:00 2 0 Calma 11 Noroeste 0 -- -- 84
2017-11-16 02:00:00 2.2 2 Oeste 12 Noroeste 0 -- -- 84
2017-11-16 01:00:00 3.5 6 Noroeste 13 Noroeste 0 -- -- 80
2017-11-16 00:00:00 4.7 8 Oeste 14 Noroeste 0 -- -- 74
2017-11-15 23:00:00 5.2 4 Oeste 12 Noroeste 0 -- -- 72
2017-11-15 22:00:00 6 5 Noroeste 9 Oeste 0 -- -- 69
2017-11-15 21:00:00 7.2 3 Noroeste 12 Oeste 0 -- -- 63
2017-11-15 20:00:00 8.9 7 Oeste 21 Sudoeste 0 -- -- 52
2017-11-15 19:00:00 9.9 10 Sudoeste 21 Sudoeste 0 -- -- 49
2017-11-15 18:00:00 11.2 9 Sudoeste 15 Sudoeste 0 -- -- 35
2017-11-15 17:00:00 14.3 8 Oeste 21 Oeste 0 -- -- 28
2017-11-15 16:00:00 13.5 11 Oeste 23 Oeste 0 -- -- 29
2017-11-15 15:00:00 13.3 13 Oeste 26 Oeste 0 -- -- 31
2017-11-15 14:00:00 12.7 15 Oeste 27 Oeste 0 -- -- 31
2017-11-15 13:00:00 11.2 17 Oeste 26 Oeste 0 -- -- 36
2017-11-15 12:00:00 9.2 13 Oeste 21 Sudoeste 0 -- -- 44
2017-11-15 11:00:00 5.7 8 Noroeste 13 Noroeste 0 -- -- 69
2017-11-15 10:00:00 3.3 7 Noroeste 17 Noroeste 0 -- -- 77
2017-11-15 09:00:00 0.9 5 Noroeste 16 Noroeste 0 -- -- 89
2017-11-15 08:00:00 0.7 7 Noroeste 14 Oeste 0 -- -- 85
2017-11-15 07:00:00 1.5 3 Noroeste 18 Sudoeste 0 -- -- 81
2017-11-15 06:00:00 2.3 9 Sudoeste 18 Sudoeste 0 -- -- 81
2017-11-15 05:00:00 1.5 9 Sudoeste 15 Sudoeste 0 -- -- 83
2017-11-15 04:00:00 1.8 5 Sudoeste 14 Sudoeste 0 -- -- 83
2017-11-15 03:00:00 2.3 8 Sudoeste 20 Sudoeste 0 -- -- 80
2017-11-15 02:00:00 2.5 12 Sudoeste 20 Sudoeste 0 -- -- 80
2017-11-15 01:00:00 3.2 9 Sudoeste 20 Sudoeste 0 -- -- 78
2017-11-15 00:00:00 3.8 9 Sudoeste 19 Sudoeste 0 -- -- 77
2017-11-14 23:00:00 4.4 9 Sudoeste 26 Oeste 0 -- -- 76
2017-11-14 22:00:00 4.8 11 Oeste 26 Oeste 0 -- -- 72
2017-11-14 21:00:00 5.3 9 Oeste 21 Oeste 0 -- -- 69
2017-11-14 20:00:00 5.8 6 Sudoeste 18 Oeste 0 -- -- 66
2017-11-14 19:00:00 6.7 5 Oeste 17 Oeste 0 -- -- 61
2017-11-14 18:00:00 8.2 8 Oeste 15 Oeste 0 -- -- 55
2017-11-14 17:00:00 10.4 10 Oeste 24 Oeste 0 -- -- 47
2017-11-14 16:00:00 10.2 13 Noroeste 31 Oeste 0 -- -- 45
2017-11-14 15:00:00 10.1 17 Noroeste 28 Oeste 0 -- -- 43
2017-11-14 14:00:00 9.5 16 Oeste 27 Oeste 0 -- -- 45
2017-11-14 13:00:00 9.2 12 Oeste 29 Noroeste 0 -- -- 51
2017-11-14 12:00:00 8.8 13 Noroeste 28 Oeste 0 -- -- 52
2017-11-14 11:00:00 8 13 Oeste 24 Oeste 0 -- -- 63
2017-11-14 10:00:00 7.2 13 Oeste 27 Oeste 0 -- -- 67
2017-11-14 09:00:00 5.7 13 Oeste 25 Oeste 0 -- -- 76
2017-11-14 08:00:00 5.1 8 Oeste 19 Oeste 0 -- -- 79
2017-11-14 07:00:00 4.7 6 Sudoeste 22 Oeste 0 -- -- 81
2017-11-14 06:00:00 5.5 6 Oeste 19 Oeste 0 -- -- 78
2017-11-14 05:00:00 5.5 7 Oeste 19 Oeste 0 -- -- 80
2017-11-14 04:00:00 5.7 12 Oeste 25 Sudoeste 0 -- -- 78
2017-11-14 03:00:00 5.6 10 Oeste 24 Oeste 0 -- -- 79
2017-11-14 02:00:00 6.2 12 Noroeste 26 Oeste 0 -- -- 73
2017-11-14 01:00:00 6.3 13 Noroeste 24 Oeste 0 -- -- 73
2017-11-14 00:00:00 6.7 14 Oeste 28 Oeste 0 -- -- 71
2017-11-13 23:00:00 6.6 12 Oeste 34 Oeste 0 -- -- 73
2017-11-13 22:00:00 6.3 14 Oeste 30 Sudoeste 0 -- -- 75
2017-11-13 21:00:00 6.7 12 Oeste 24 Oeste 0 -- -- 71
2017-11-13 20:00:00 6.8 5 Oeste 19 Noroeste 0 -- -- 67
2017-11-13 19:00:00 7.2 5 Oeste 26 Norte 0 -- -- 63
2017-11-13 18:00:00 7.7 12 Noroeste 21 Noroeste 0 -- -- 57
2017-11-13 17:00:00 9.2 7 Norte 34 Oeste 0 -- -- 55
2017-11-13 16:00:00 9.2 16 Noroeste 32 Noroeste 0 -- -- 51
2017-11-13 15:00:00 7.8 12 Noroeste 29 Noroeste 0 -- -- 61
2017-11-13 14:00:00 8.2 13 Norte 37 Noroeste 0 -- -- 58
2017-11-13 13:00:00 8.5 14 Norte 30 Norte 0 -- -- 68
2017-11-13 12:00:00 7.7 11 Norte 27 Noroeste 0.4 -- -- 75
2017-11-13 11:00:00 7.7 17 Noroeste 32 Oeste 0 -- -- 77
2017-11-13 10:00:00 7.8 10 Noroeste 34 Noroeste 0 -- -- 77
2017-11-13 09:00:00 6.9 12 Oeste 26 Oeste 0.2 -- -- 84
2017-11-13 08:00:00 7.5 10 Noroeste 36 Noroeste 0 -- -- 78
2017-11-13 07:00:00 7.7 10 Noroeste 32 Noroeste 0.2 -- -- 82
2017-11-13 06:00:00 7.8 13 Noroeste 33 Oeste 0.2 -- -- 88
2017-11-13 05:00:00 8.4 19 Oeste 32 Oeste 0.6 -- -- 83
2017-11-13 04:00:00 8.9 12 Noroeste 34 Noroeste 0 -- -- 82
2017-11-13 03:00:00 10 17 Noroeste 33 Norte 0 -- -- 76
2017-11-13 02:00:00 10.8 17 Noroeste 38 Noroeste 0 -- -- 72
2017-11-13 01:00:00 11.9 18 Norte 38 Noroeste 0 -- -- 73
2017-11-13 00:00:00 12.6 12 Noroeste 27 Oeste 0 -- -- 77
2017-11-12 23:00:00 13 12 Noroeste 38 Oeste 0 -- -- 75
2017-11-12 22:00:00 13 13 Oeste 24 Sudoeste 0 -- -- 78
2017-11-12 21:00:00 12.2 9 Noroeste 24 Oeste 0 -- -- 82
2017-11-12 20:00:00 13 15 Oeste 30 Oeste 0 -- -- 79
2017-11-12 19:00:00 13.5 13 Oeste 37 Noroeste 0 -- -- 75
2017-11-12 18:00:00 14.4 20 Oeste 36 Oeste 0 -- -- 70
2017-11-12 17:00:00 15.3 13 Oeste 27 Oeste 0 -- -- 61
2017-11-12 16:00:00 15.7 14 Oeste 28 Oeste 0 -- -- 61
2017-11-12 15:00:00 15.4 12 Oeste 35 Noroeste 0 -- -- 61
2017-11-12 14:00:00 14.9 17 Oeste 30 Oeste 0 -- -- 64
2017-11-12 13:00:00 14.5 17 Oeste 33 Oeste 0 -- -- 63
2017-11-12 12:00:00 13.7 15 Oeste 28 Oeste 0 -- -- 66
2017-11-12 11:00:00 11.3 12 Oeste 22 Oeste 0 -- -- 75
2017-11-12 10:00:00 9.5 7 Oeste 18 Sudoeste 0 -- -- 80
2017-11-12 09:00:00 7.6 5 Oeste 12 Sudoeste 0 -- -- 86
2017-11-12 08:00:00 7.2 5 Oeste 10 Oeste 0 -- -- 89
2017-11-12 07:00:00 7.3 3 Noroeste 9 Noroeste 0 -- -- 91
2017-11-12 06:00:00 7.2 4 Noroeste 9 Noroeste 0 -- -- 91
2017-11-12 05:00:00 7.2 4 Oeste 9 Noroeste 0 -- -- 92
2017-11-12 04:00:00 6.5 4 Oeste 8 Oeste 0 -- -- 92
2017-11-12 03:00:00 6.8 3 Oeste 9 Oeste 0 -- -- 90
2017-11-12 02:00:00 6.6 5 Oeste 10 Oeste 0 -- -- 90
2017-11-12 01:00:00 6.7 7 Oeste 13 Oeste 0 -- -- 90
2017-11-12 00:00:00 7 6 Oeste 13 Oeste 0 -- -- 89
2017-11-11 23:00:00 7.7 5 Noroeste 9 Oeste 0 -- -- 88
2017-11-11 22:00:00 8.6 3 Oeste 7 Noroeste 0 -- -- 86
2017-11-11 21:00:00 9.6 2 Norte 7 Noroeste 0 -- -- 83
2017-11-11 20:00:00 11.1 4 Oeste 12 Sudoeste 0 -- -- 76
2017-11-11 19:00:00 11.8 5 Oeste 16 Norte 0 -- -- 73
2017-11-11 18:00:00 12.8 7 Noroeste 17 Noroeste 0 -- -- 70
2017-11-11 17:00:00 14.9 9 Oeste 19 Oeste 0 -- -- 60
2017-11-11 16:00:00 14.5 12 Oeste 25 Oeste 0 -- -- 62
2017-11-11 15:00:00 14 14 Oeste 25 Sudoeste 0 -- -- 63
2017-11-11 14:00:00 13.4 13 Oeste 28 Oeste 0 -- -- 65
2017-11-11 13:00:00 13.4 16 Oeste 31 Oeste 0 -- -- 66
2017-11-11 12:00:00 13.2 14 Oeste 28 Oeste 0 -- -- 69
2017-11-11 11:00:00 12 10 Oeste 18 Oeste 0 -- -- 77
2017-11-11 10:00:00 10.8 6 Noroeste 14 Oeste 0 -- -- 83
2017-11-11 09:00:00 10 9 Oeste 23 Oeste 0 -- -- 84
2017-11-11 08:00:00 9.5 9 Oeste 17 Oeste 0 -- -- 86
2017-11-11 07:00:00 9.6 7 Noroeste 16 Oeste 0 -- -- 86
2017-11-11 06:00:00 10.3 6 Noroeste 17 Oeste 0 -- -- 82
2017-11-11 05:00:00 10.9 7 Oeste 17 Oeste 0 -- -- 81
2017-11-11 04:00:00 11.2 12 Oeste 21 Sudoeste 0 -- -- 77
2017-11-11 03:00:00 11 10 Oeste 28 Sudoeste 0 -- -- 80
2017-11-11 02:00:00 11.2 15 Oeste 27 Oeste 0 -- -- 79
2017-11-11 01:00:00 10.9 8 Oeste 24 Oeste 0 -- -- 83
2017-11-11 00:00:00 11.1 12 Oeste 26 Oeste 0 -- -- 83
2017-11-10 23:00:00 11.1 11 Oeste 25 Oeste 0 -- -- 83
2017-11-10 22:00:00 11.2 12 Oeste 27 Oeste 0 -- -- 84
2017-11-10 21:00:00 11.2 9 Oeste 31 Sudoeste 0 -- -- 85
2017-11-10 20:00:00 11.3 12 Sudoeste 30 Sudoeste 0 -- -- 84
2017-11-10 19:00:00 11.3 3 Sudoeste 18 Oeste 0 -- -- 84
2017-11-10 18:00:00 11.6 11 Oeste 30 Oeste 0 -- -- 88
2017-11-10 17:00:00 12.2 9 Noroeste 26 Noroeste 0 -- -- 89
2017-11-10 16:00:00 12.9 20 Noroeste 31 Noroeste 0 -- -- 82
2017-11-10 15:00:00 12.4 14 Noroeste 24 Noroeste 0 -- -- 89
2017-11-10 14:00:00 12 12 Oeste 27 Oeste 0.2 -- -- 92
2017-11-10 13:00:00 11.8 12 Oeste 23 Oeste 0 -- -- 92
2017-11-10 12:00:00 11.3 15 Oeste 26 Oeste 0 -- -- 94
2017-11-10 11:00:00 10.4 9 Oeste 20 Oeste 0.2 -- -- 98
2017-11-10 10:00:00 8.6 5 Oeste 13 Noroeste 0 -- -- 99
2017-11-10 09:00:00 7 5 Oeste 10 Noroeste 0 -- -- 99
2017-11-10 08:00:00 6.6 7 Noroeste 13 Noroeste 0.2 -- -- 98
2017-11-10 07:00:00 6.7 7 Oeste 12 Oeste 0 -- -- 98
2017-11-10 06:00:00 6.5 5 Oeste 10 Oeste 0.2 -- -- 97
2017-11-10 05:00:00 6.3 6 Oeste 13 Oeste 0 -- -- 96
2017-11-10 04:00:00 6.2 6 Oeste 11 Oeste 0 -- -- 94
2017-11-10 03:00:00 6.5 4 Oeste 12 Oeste 0 -- -- 88
2017-11-10 02:00:00 6.3 5 Oeste 15 Norte 0 -- -- 83
2017-11-10 01:00:00 7.5 6 Oeste 19 Sudoeste 0 -- -- 74
2017-11-10 00:00:00 7.5 9 Sudoeste 19 Oeste 0 -- -- 72
2017-11-09 23:00:00 7.7 8 Oeste 23 Oeste 0 -- -- 70
2017-11-09 22:00:00 7.9 12 Oeste 24 Oeste 0 -- -- 71
2017-11-09 21:00:00 7.6 10 Oeste 20 Oeste 0 -- -- 72
2017-11-09 20:00:00 8 9 Sudoeste 23 Sudoeste 0 -- -- 69
2017-11-09 19:00:00 8.3 9 Sudoeste 20 Sudoeste 0 -- -- 66
2017-11-09 18:00:00 9 8 Oeste 24 Noroeste 0 -- -- 62
2017-11-09 17:00:00 10.1 8 Noroeste 24 Oeste 0 -- -- 54
2017-11-09 16:00:00 10 8 Noroeste 28 Noroeste 0 -- -- 58
2017-11-09 15:00:00 9.9 12 Noroeste 32 Noroeste 0 -- -- 62
2017-11-09 14:00:00 10.7 15 Noroeste 30 Norte 0 -- -- 62
2017-11-09 13:00:00 10.1 12 Oeste 24 Oeste 0 -- -- 70
2017-11-09 12:00:00 8.1 12 Oeste 28 Sudoeste 0 -- -- 79
2017-11-09 11:00:00 7.1 10 Oeste 23 Oeste 0 -- -- 84
2017-11-09 10:00:00 7 16 Oeste 28 Oeste 0.2 -- -- 82
2017-11-09 09:00:00 6.1 10 Oeste 21 Oeste 0 -- -- 88
2017-11-09 08:00:00 5.1 8 Oeste 18 Noroeste 0 -- -- 94
2017-11-09 07:00:00 4.3 7 Noroeste 20 Noroeste 0 -- -- 94
2017-11-09 06:00:00 4.3 8 Noroeste 15 Oeste 0 -- -- 92
2017-11-09 05:00:00 4.6 6 Noroeste 13 Noroeste 0 -- -- 92
2017-11-09 04:00:00 4.6 5 Noroeste 16 Oeste 0 -- -- 91
2017-11-09 03:00:00 4.7 2 Norte 14 Oeste 0 -- -- 90
2017-11-09 02:00:00 5.3 6 Oeste 19 Oeste 0 -- -- 90
2017-11-09 01:00:00 4.1 4 Oeste 9 Noroeste 0 -- -- 94
2017-11-09 00:00:00 4.4 5 Noroeste 17 Oeste 0 -- -- 89
2017-11-08 23:00:00 4.6 10 Oeste 19 Oeste 0 -- -- 91
2017-11-08 22:00:00 4.5 8 Oeste 20 Oeste 0 -- -- 93
2017-11-08 21:00:00 4 5 Noroeste 12 Oeste 0 -- -- 94
2017-11-08 20:00:00 4.4 7 Oeste 19 Oeste 0 -- -- 93
2017-11-08 19:00:00 5.1 11 Oeste 20 Oeste 0.8 -- -- 92
2017-11-08 18:00:00 6.1 9 Oeste 21 Oeste 0.4 -- -- 88
2017-11-08 17:00:00 5.9 9 Oeste 25 Noroeste 0 -- -- 88
2017-11-08 16:00:00 6.3 12 Oeste 26 Noroeste 0.8 -- -- 90
2017-11-08 15:00:00 6.6 6 Noroeste 30 Oeste 2 -- -- 87
2017-11-08 14:00:00 9.1 18 Oeste 31 Oeste 0 -- -- 77
2017-11-08 13:00:00 9 15 Oeste 28 Oeste 0 -- -- 75
2017-11-08 12:00:00 9 13 Oeste 26 Oeste 0 -- -- 72
2017-11-08 11:00:00 8.9 15 Oeste 31 Oeste 0 -- -- 68
2017-11-08 10:00:00 8.9 17 Oeste 30 Noroeste 0 -- -- 70
2017-11-08 09:00:00 7.7 10 Oeste 22 Oeste 0 -- -- 80
2017-11-08 08:00:00 7 11 Oeste 20 Sudoeste 0 -- -- 82
2017-11-08 07:00:00 6.7 4 Oeste 16 Oeste 0 -- -- 87
2017-11-08 06:00:00 7.3 9 Sudoeste 25 Oeste 0 -- -- 85
2017-11-08 05:00:00 8.2 13 Oeste 20 Oeste 0 -- -- 82
2017-11-08 04:00:00 8.3 5 Oeste 17 Oeste 0 -- -- 77
2017-11-08 03:00:00 9 12 Oeste 22 Oeste 0 -- -- 71
2017-11-08 02:00:00 9.4 10 Oeste 22 Oeste 0 -- -- 72
2017-11-08 01:00:00 9.9 13 Oeste 26 Oeste 0 -- -- 77
2017-11-08 00:00:00 10.3 16 Noroeste 33 Sudoeste 0 -- -- 82
2017-11-07 23:00:00 9.5 4 Noroeste 13 Oeste 0 -- -- 90
2017-11-07 22:00:00 9.8 5 Oeste 14 Oeste 0 -- -- 89
2017-11-07 21:00:00 9.8 7 Oeste 22 Sudoeste 0 -- -- 87
2017-11-07 20:00:00 10.4 11 Oeste 21 Oeste 0 -- -- 83
2017-11-07 19:00:00 11.7 10 Noroeste 15 Oeste 0 -- -- 69
2017-11-07 18:00:00 12.3 6 Noroeste 15 Noroeste 0 -- -- 64
2017-11-07 17:00:00 14.6 13 Noroeste 22 Noroeste 0 -- -- 55
2017-11-07 16:00:00 14.4 10 Noroeste 21 Noroeste 0 -- -- 56
2017-11-07 15:00:00 14.2 12 Noroeste 28 Noroeste 0 -- -- 58
2017-11-07 14:00:00 12.8 14 Noroeste 24 Noroeste 0 -- -- 62
2017-11-07 13:00:00 12 12 Oeste 24 Oeste 0 -- -- 62
2017-11-07 12:00:00 11.2 9 Oeste 22 Oeste 0 -- -- 64
2017-11-07 11:00:00 9.9 7 Noroeste 15 Oeste 0 -- -- 70
2017-11-07 10:00:00 8.4 6 Noroeste 19 Oeste 0 -- -- 83
2017-11-07 09:00:00 5.7 5 Noroeste 10 Oeste 0 -- -- 94
2017-11-07 08:00:00 5.1 3 Noroeste 9 Noroeste 0 -- -- 90
2017-11-07 07:00:00 5.8 4 Oeste 13 Noroeste 0 -- -- 88
2017-11-07 06:00:00 6.4 7 Oeste 21 Oeste 0 -- -- 89
2017-11-07 05:00:00 6.7 11 Oeste 21 Oeste 0 -- -- 86
2017-11-07 04:00:00 6.5 8 Oeste 19 Oeste 0 -- -- 88
2017-11-07 03:00:00 7.2 8 Oeste 20 Oeste 0 -- -- 84
2017-11-07 02:00:00 7.6 11 Oeste 22 Oeste 0 -- -- 82
2017-11-07 01:00:00 7.5 11 Oeste 22 Oeste 0 -- -- 82
2017-11-07 00:00:00 6.6 9 Oeste 27 Oeste 0 -- -- 87
2017-11-06 23:00:00 6.6 9 Oeste 19 Oeste 0 -- -- 85
2017-11-06 22:00:00 6.7 8 Oeste 27 Noroeste 0 -- -- 87
2017-11-06 21:00:00 6.6 6 Noroeste 14 Oeste 0 -- -- 84
2017-11-06 20:00:00 7.7 12 Noroeste 29 Noroeste 0 -- -- 77
2017-11-06 19:00:00 8.7 14 Noroeste 35 Noroeste 0 -- -- 70
2017-11-06 18:00:00 8.6 10 Noroeste 34 Noroeste 0 -- -- 76
2017-11-06 17:00:00 9.5 18 Noroeste 34 Noroeste 0 -- -- 72
2017-11-06 16:00:00 9.7 18 Noroeste 30 Noroeste 0 -- -- 74
2017-11-06 15:00:00 9.8 13 Norte 37 Noroeste 0 -- -- 74
2017-11-06 14:00:00 9.7 15 Noroeste 30 Noroeste 0.2 -- -- 76
2017-11-06 13:00:00 11 18 Noroeste 31 Noroeste 0 -- -- 61
2017-11-06 12:00:00 9.8 18 Noroeste 30 Oeste 0 -- -- 74
2017-11-06 11:00:00 9.5 14 Noroeste 26 Oeste 0.2 -- -- 77
2017-11-06 10:00:00 8.2 12 Noroeste 22 Noroeste 0.6 -- -- 89
2017-11-06 09:00:00 7.4 12 Oeste 23 Oeste 0.2 -- -- 90
2017-11-06 08:00:00 7.3 7 Oeste 17 Oeste 0 -- -- 90
2017-11-06 07:00:00 7.5 10 Noroeste 18 Oeste 0 -- -- 86
2017-11-06 06:00:00 7.6 9 Noroeste 21 Noroeste 0 -- -- 88
2017-11-06 05:00:00 7.7 7 Oeste 16 Oeste 0 -- -- 88
2017-11-06 04:00:00 7.7 5 Noroeste 16 Sudoeste 0.2 -- -- 91
2017-11-06 03:00:00 7.8 8 Oeste 21 Oeste 0 -- -- 92
2017-11-06 02:00:00 7.9 6 Oeste 24 Oeste 0.4 -- -- 93
2017-11-06 01:00:00 8.1 13 Oeste 27 Oeste 0.4 -- -- 91
2017-11-06 00:00:00 8.3 12 Oeste 33 Noroeste 0.2 -- -- 89
2017-11-05 23:00:00 8.7 14 Oeste 26 Oeste 0 -- -- 84
2017-11-05 22:00:00 8.8 12 Oeste 21 Oeste 0.2 -- -- 84
2017-11-05 21:00:00 9 10 Oeste 22 Oeste 0 -- -- 83
2017-11-05 20:00:00 9.5 15 Oeste 30 Oeste 0 -- -- 78
2017-11-05 19:00:00 9.6 14 Oeste 32 Noroeste 0 -- -- 77
2017-11-05 18:00:00 10 21 Oeste 41 Oeste 0 -- -- 74
2017-11-05 17:00:00 11.2 16 Noroeste 31 Noroeste 0 -- -- 69
2017-11-05 16:00:00 11.2 15 Noroeste 37 Noroeste 0 -- -- 70
2017-11-05 15:00:00 11.8 18 Noroeste 34 Oeste 0 -- -- 65
2017-11-05 14:00:00 12.3 19 Oeste 34 Oeste 0 -- -- 63
2017-11-05 13:00:00 12.3 17 Noroeste 27 Noroeste 0 -- -- 66
2017-11-05 12:00:00 10.5 9 Oeste 22 Oeste 0 -- -- 77
2017-11-05 11:00:00 9 10 Oeste 22 Oeste 0.4 -- -- 90
2017-11-05 10:00:00 9.2 11 Noroeste 24 Oeste 0 -- -- 83
2017-11-05 09:00:00 8.4 3 Noroeste 19 Oeste 0 -- -- 84
2017-11-05 08:00:00 8.8 13 Oeste 29 Oeste 0 -- -- 79
2017-11-05 07:00:00 9.4 10 Oeste 22 Oeste 0 -- -- 79
2017-11-05 06:00:00 9.2 9 Oeste 32 Oeste 0.2 -- -- 88
2017-11-05 05:00:00 10 12 Noroeste 34 Oeste 0 -- -- 85
2017-11-05 04:00:00 10.9 12 Oeste 23 Oeste 0 -- -- 80
2017-11-05 03:00:00 11 12 Oeste 26 Oeste 0 -- -- 87
2017-11-05 02:00:00 11.3 12 Oeste 27 Oeste 0 -- -- 86
2017-11-05 01:00:00 11.2 16 Oeste 30 Oeste 0 -- -- 91
2017-11-05 00:00:00 11.6 9 Oeste 15 Oeste 0 -- -- 86
2017-11-04 23:00:00 11.8 12 Oeste 21 Oeste 0 -- -- 87
2017-11-04 22:00:00 11.5 9 Oeste 18 Sudoeste 0 -- -- 90
2017-11-04 21:00:00 11.8 9 Oeste 21 Oeste 0.2 -- -- 90
2017-11-04 20:00:00 12.6 11 Oeste 27 Oeste 0.6 -- -- 85
2017-11-04 19:00:00 14.3 8 Noroeste 18 Oeste 0 -- -- 78
2017-11-04 18:00:00 14.8 8 Oeste 17 Oeste 0 -- -- 75
2017-11-04 17:00:00 15.4 9 Oeste 16 Oeste 0 -- -- 71
2017-11-04 16:00:00 15.4 8 Oeste 16 Sudoeste 0 -- -- 75
2017-11-04 15:00:00 15 8 Oeste 15 Noroeste 0 -- -- 77
2017-11-04 14:00:00 14.6 6 Oeste 14 Oeste 0 -- -- 80
2017-11-04 13:00:00 11.8 4 Oeste 9 Oeste 0 -- -- 91
2017-11-04 12:00:00 10.4 3 Noroeste 7 Noroeste 0 -- -- 94
2017-11-04 11:00:00 9.8 3 Noroeste 5 Noroeste 0 -- -- 96
2017-11-04 10:00:00 8.7 3 Noroeste 5 Oeste 0 -- -- 98
2017-11-04 09:00:00 7.9 2 Noroeste 6 Oeste 0.2 -- -- 98
2017-11-04 08:00:00 7.5 2 Oeste 4 Norte 0 -- -- 98
2017-11-04 07:00:00 7.3 0 Calma 8 Oeste 0 -- -- 98
2017-11-04 06:00:00 7.1 2 Noroeste 6 Oeste 0 -- -- 97
2017-11-04 05:00:00 7.4 3 Oeste 6 Oeste 0 -- -- 97
2017-11-04 04:00:00 8.2 3 Sur 6 Sudoeste 0 -- -- 97
2017-11-04 03:00:00 8.6 0 Calma 4 Oeste 0 -- -- 96
2017-11-04 02:00:00 9.2 2 Sudoeste 8 Oeste 0 -- -- 96
2017-11-04 01:00:00 9.6 2 Sudoeste 5 Sudeste 0 -- -- 95
2017-11-04 00:00:00 10.3 2 Sudeste 6 Sudeste 0 -- -- 94
2017-11-03 23:00:00 11.2 0 Calma 10 Sudoeste 0 -- -- 92
2017-11-03 22:00:00 12.3 3 Oeste 13 Sudoeste 0.2 -- -- 89
2017-11-03 21:00:00 13.6 5 Sur 28 Sur 0.6 -- -- 84
2017-11-03 20:00:00 13.2 3 Sur 8 Sudoeste 0 -- -- 78
2017-11-03 19:00:00 14.8 0 Calma 4 Sudeste 0 -- -- 72
2017-11-03 18:00:00 17.2 2 Sur 6 Sur 0 -- -- 64
2017-11-03 17:00:00 18.5 4 Sudeste 10 Este 0 -- -- 57
2017-11-03 16:00:00 18.2 4 Este 14 Sudeste 0 -- -- 59
2017-11-03 15:00:00 18.3 6 Este 19 Este 0 -- -- 64
2017-11-03 14:00:00 18.3 10 Este 22 Sudeste 0 -- -- 64
2017-11-03 13:00:00 17.6 9 Este 18 Nordeste 0 -- -- 68
2017-11-03 12:00:00 15.9 7 Este 14 Este 0 -- -- 77
2017-11-03 11:00:00 14.6 4 Este 8 Sudeste 0 -- -- 85
2017-11-03 10:00:00 12.4 4 Sudeste 17 Sudoeste 0 -- -- 90
2017-11-03 09:00:00 12.3 3 Sur 13 Sudeste 0 -- -- 93
2017-11-03 08:00:00 12.3 6 Este 24 Este 0 -- -- 93
2017-11-03 07:00:00 12.1 9 Este 18 Este 0 -- -- 93
2017-11-03 06:00:00 11.8 7 Este 19 Este 0 -- -- 94
2017-11-03 05:00:00 10.7 3 Oeste 5 Oeste 0 -- -- 95
2017-11-03 04:00:00 11 2 Este 8 Sudeste 0 -- -- 95
2017-11-03 03:00:00 10.3 0 Calma 4 Oeste 0 -- -- 93
2017-11-03 02:00:00 11.1 2 Nordeste 6 Sudeste 0 -- -- 90
2017-11-03 01:00:00 11.5 0 Calma 7 Sudeste 0 -- -- 88
2017-11-03 00:00:00 11.6 3 Sudeste 5 Sudeste 0 -- -- 88
2017-11-02 23:00:00 11.5 0 Calma 6 Sudoeste 0 -- -- 86
2017-11-02 22:00:00 12.3 0 Calma 6 Sudoeste 0 -- -- 82
2017-11-02 21:00:00 14.2 2 Sudeste 8 Sudeste 0 -- -- 77
2017-11-02 20:00:00 15.8 3 Sudeste 20 Este 0 -- -- 70
2017-11-02 19:00:00 16.4 7 Este 15 Este 0 -- -- 68
2017-11-02 18:00:00 16.7 6 Este 18 Este 0 -- -- 69
2017-11-02 17:00:00 16.9 8 Este 22 Este 0 -- -- 69
2017-11-02 16:00:00 17.1 10 Este 18 Este 0 -- -- 69
2017-11-02 15:00:00 16.1 8 Este 19 Este 0 -- -- 75
2017-11-02 14:00:00 15 11 Este 24 Sudeste 0 -- -- 80
2017-11-02 13:00:00 14.3 13 Este 29 Sudeste 0 -- -- 82
2017-11-02 12:00:00 13.8 13 Este 29 Este 0 -- -- 85
2017-11-02 11:00:00 12.5 10 Este 22 Este 0 -- -- 91
2017-11-02 10:00:00 12.1 10 Este 29 Este 0 -- -- 92
2017-11-02 09:00:00 11.9 10 Este 24 Sudeste 0 -- -- 93
2017-11-02 08:00:00 11.7 11 Este 20 Sudeste 0 -- -- 93
2017-11-02 07:00:00 11.9 9 Este 18 Este 0 -- -- 93
2017-11-02 06:00:00 11.5 9 Este 17 Este 0 -- -- 92
2017-11-02 05:00:00 11.3 4 Sudeste 12 Sudeste 0 -- -- 91
2017-11-02 04:00:00 11 5 Sudeste 13 Sudeste 0 -- -- 90
2017-11-02 03:00:00 11 6 Sudeste 12 Sudeste 0 -- -- 89
2017-11-02 02:00:00 10.8 4 Sudeste 14 Sudeste 0 -- -- 89
2017-11-02 01:00:00 11.3 5 Sudeste 11 Sudeste 0 -- -- 88
2017-11-02 00:00:00 11.1 0 Calma 8 Este 0 -- -- 86
2017-11-01 23:00:00 11.7 4 Sudeste 11 Este 0 -- -- 85
2017-11-01 22:00:00 11.2 0 Calma 6 Oeste 0 -- -- 84
2017-11-01 21:00:00 12.2 3 Sudoeste 13 Sudeste 0 -- -- 80
2017-11-01 20:00:00 13.7 3 Este 12 Este 0 -- -- 74
2017-11-01 19:00:00 15.2 2 Nordeste 22 Este 0 -- -- 69
2017-11-01 18:00:00 16.3 10 Este 24 Este 0 -- -- 65
2017-11-01 17:00:00 17 10 Este 22 Este 0 -- -- 63
2017-11-01 16:00:00 17 9 Este 20 Sudeste 0 -- -- 65
2017-11-01 15:00:00 15.8 12 Este 22 Este 0 -- -- 71
2017-11-01 14:00:00 13.6 9 Este 19 Este 0 -- -- 80
2017-11-01 13:00:00 11.5 10 Este 21 Este 0 -- -- 88
2017-11-01 12:00:00 10.6 9 Este 21 Este 0 -- -- 89
2017-11-01 11:00:00 9.6 10 Sudeste 21 Este 0 -- -- 91
2017-11-01 10:00:00 9 9 Este 17 Este 0 -- -- 92
2017-11-01 09:00:00 8.7 9 Sudeste 15 Este 0 -- -- 90
2017-11-01 08:00:00 8.3 8 Sudeste 14 Este 0 -- -- 89
2017-11-01 07:00:00 6.7 6 Este 12 Sudeste 0 -- -- 91
2017-11-01 06:00:00 7.5 4 Sudeste 13 Este 0 -- -- 85
2017-11-01 05:00:00 7.8 7 Sudeste 14 Este 0 -- -- 83
2017-11-01 04:00:00 8.1 5 Sudeste 13 Este 0 -- -- 81
2017-11-01 03:00:00 8.3 5 Sudeste 13 Este 0 -- -- 80
2017-11-01 02:00:00 7.7 7 Sudeste 15 Sudeste 0 -- -- 84
2017-11-01 01:00:00 7.3 0 Calma 7 Este 0 -- -- 82
2017-11-01 00:00:00 8.3 0 Calma 10 Sudeste 0 -- -- 77
2017-10-31 23:00:00 9 3 Sudeste 6 Sudeste 0 -- -- 74
2017-10-31 22:00:00 9.6 2 Sudeste 9 Este 0 -- -- 71
2017-10-31 21:00:00 10.7 3 Sudeste 12 Sudeste 0 -- -- 67
2017-10-31 20:00:00 11.6 9 Sudeste 14 Este 0 -- -- 63
2017-10-31 19:00:00 12.8 6 Sudeste 14 Sudeste 0 -- -- 58
2017-10-31 18:00:00 14.1 8 Este 19 Este 0 -- -- 53
2017-10-31 17:00:00 15.3 10 Este 19 Este 0 -- -- 47
2017-10-31 16:00:00 15.4 12 Este 23 Este 0 -- -- 46
2017-10-31 15:00:00 15.2 8 Este 15 Nordeste 0 -- -- 45
2017-10-31 14:00:00 14.5 3 Este 10 Sudeste 0 -- -- 49
2017-10-31 13:00:00 13.4 2 Sudeste 9 Noroeste 0 -- -- 54
2017-10-31 12:00:00 12.1 3 Noroeste 11 Noroeste 0 -- -- 60
2017-10-31 11:00:00 10.7 5 Oeste 12 Oeste 0 -- -- 65
2017-10-31 10:00:00 8.8 5 Oeste 14 Oeste 0 -- -- 73
2017-10-31 09:00:00 5.5 3 Oeste 12 Sur 0 -- -- 85
2017-10-31 08:00:00 4.7 2 Oeste 9 Sur 0 -- -- 86
2017-10-31 07:00:00 4.7 4 Sudoeste 10 Sudoeste 0 -- -- 86
2017-10-31 06:00:00 5.1 0 Calma 4 Noroeste 0 -- -- 88
2017-10-31 05:00:00 5.7 0 Calma 15 Oeste 0 -- -- 86
2017-10-31 04:00:00 5.4 3 Oeste 8 Oeste 0 -- -- 88
2017-10-31 03:00:00 5.8 2 Noroeste 8 Oeste 0 -- -- 85
2017-10-31 02:00:00 6.5 2 Noroeste 13 Oeste 0 -- -- 82
2017-10-31 01:00:00 7.1 5 Oeste 13 Oeste 0 -- -- 80
2017-10-31 00:00:00 7.5 3 Noroeste 17 Oeste 0 -- -- 78
2017-10-30 23:00:00 8.4 8 Oeste 16 Oeste 0 -- -- 73
2017-10-30 22:00:00 8.7 7 Oeste 16 Noroeste 0 -- -- 70
2017-10-30 21:00:00 9.8 10 Noroeste 29 Noroeste 0 -- -- 68
2017-10-30 20:00:00 10.7 13 Noroeste 31 Noroeste 0 -- -- 66
2017-10-30 19:00:00 11.7 12 Noroeste 27 Oeste 0 -- -- 67
2017-10-30 18:00:00 12.7 15 Noroeste 31 Noroeste 0 -- -- 66
2017-10-30 17:00:00 13.7 13 Noroeste 26 Noroeste 0 -- -- 69
2017-10-30 16:00:00 15.4 17 Noroeste 30 Noroeste 0 -- -- 65
2017-10-30 15:00:00 16.3 14 Noroeste 31 Noroeste 0 -- -- 64
2017-10-30 14:00:00 16.1 12 Noroeste 28 Noroeste 0 -- -- 69
2017-10-30 13:00:00 15.1 9 Noroeste 22 Noroeste 0 -- -- 74
2017-10-30 12:00:00 14.6 12 Oeste 29 Oeste 0 -- -- 77
2017-10-30 11:00:00 14.7 14 Noroeste 28 Norte 0 -- -- 75
2017-10-30 10:00:00 13.4 14 Oeste 27 Oeste 0 -- -- 83
2017-10-30 09:00:00 12.6 16 Oeste 27 Oeste 0 -- -- 85
2017-10-30 08:00:00 12.1 13 Oeste 24 Oeste 0 -- -- 86
2017-10-30 07:00:00 11.9 13 Oeste 24 Oeste 0 -- -- 88
2017-10-30 06:00:00 12 14 Oeste 25 Oeste 0 -- -- 88
2017-10-30 05:00:00 12.1 11 Oeste 21 Sudoeste 0 -- -- 87
2017-10-30 04:00:00 11.8 11 Oeste 22 Oeste 0 -- -- 90
2017-10-30 03:00:00 11.9 14 Oeste 23 Oeste 0 -- -- 91
2017-10-30 02:00:00 12.4 12 Oeste 24 Oeste 0 -- -- 85
2017-10-30 01:00:00 12.3 14 Oeste 24 Sudoeste 0 -- -- 87
2017-10-30 00:00:00 12.4 11 Oeste 22 Oeste 0 -- -- 84
2017-10-29 23:00:00 12.4 9 Oeste 22 Oeste 0 -- -- 83
2017-10-29 22:00:00 12.1 12 Oeste 28 Oeste 0 -- -- 86
2017-10-29 21:00:00 11.9 10 Oeste 21 Oeste 0 -- -- 87
2017-10-29 20:00:00 12.1 11 Oeste 26 Oeste 0 -- -- 86
2017-10-29 19:00:00 12.6 15 Oeste 26 Oeste 0 -- -- 80
2017-10-29 18:00:00 13.6 13 Noroeste 24 Oeste 0 -- -- 75
2017-10-29 17:00:00 14.7 11 Noroeste 24 Oeste 0 -- -- 66
2017-10-29 16:00:00 15.2 11 Noroeste 28 Oeste 0 -- -- 64
2017-10-29 15:00:00 15.6 9 Oeste 23 Noroeste 0 -- -- 59
2017-10-29 14:00:00 16.1 11 Noroeste 34 Oeste 0 -- -- 58
2017-10-29 13:00:00 16.4 10 Noroeste 28 Oeste 0 -- -- 54
2017-10-29 12:00:00 15.2 17 Oeste 26 Oeste 0 -- -- 62
2017-10-29 11:00:00 13.7 12 Oeste 25 Oeste 0 -- -- 67
2017-10-29 10:00:00 12.3 11 Oeste 22 Oeste 0 -- -- 72
2017-10-29 09:00:00 10.1 8 Sudoeste 22 Sudoeste 0 -- -- 79
2017-10-29 08:00:00 9.2 9 Sudoeste 21 Sudoeste 0 -- -- 82
2017-10-29 07:00:00 8.9 11 Sudoeste 21 Sudoeste 0 -- -- 82
2017-10-29 06:00:00 8.4 8 Sudoeste 20 Sudoeste 0 -- -- 83
2017-10-29 05:00:00 8.4 9 Sudoeste 18 Sudoeste 0 -- -- 82
2017-10-29 04:00:00 9 11 Sudoeste 20 Sudoeste 0 -- -- 83
2017-10-29 03:00:00 9 8 Sudoeste 20 Oeste 0 -- -- 84
2017-10-29 02:00:00 10.1 12 Oeste 24 Oeste 0 -- -- 82
2017-10-29 01:00:00 10.8 12 Oeste 22 Sudoeste 0 -- -- 78
2017-10-29 00:00:00 11.3 11 Oeste 23 Oeste 0 -- -- 76
2017-10-28 23:00:00 11.9 11 Oeste 21 Noroeste 0 -- -- 73
2017-10-28 22:00:00 12.2 6 Oeste 19 Oeste 0 -- -- 73
2017-10-28 21:00:00 13.1 9 Oeste 18 Oeste 0 -- -- 71
2017-10-28 20:00:00 13.9 4 Noroeste 13 Oeste 0 -- -- 68
2017-10-28 19:00:00 15.7 8 Noroeste 22 Norte 0 -- -- 60
2017-10-28 18:00:00 17.4 8 Norte 25 Norte 0 -- -- 52
2017-10-28 17:00:00 18.1 9 Norte 27 Norte 0 -- -- 51
2017-10-28 16:00:00 18.1 15 Noroeste 27 Noroeste 0 -- -- 51
2017-10-28 15:00:00 17.6 15 Norte 27 Noroeste 0 -- -- 55
2017-10-28 14:00:00 17.3 12 Noroeste 29 Noroeste 0 -- -- 57
2017-10-28 13:00:00 17.1 7 Noroeste 21 Oeste 0 -- -- 61
2017-10-28 12:00:00 15.5 10 Oeste 20 Oeste 0 -- -- 72
2017-10-28 11:00:00 15.3 12 Oeste 24 Sudoeste 0 -- -- 75
2017-10-28 10:00:00 13.7 12 Oeste 23 Oeste 0 -- -- 83
2017-10-28 09:00:00 13.3 9 Oeste 21 Oeste 0 -- -- 85
2017-10-28 08:00:00 13.7 9 Oeste 20 Sudoeste 0 -- -- 82
2017-10-28 07:00:00 13.8 9 Oeste 18 Oeste 0 -- -- 82
2017-10-28 06:00:00 14 9 Oeste 19 Oeste 0 -- -- 78
2017-10-28 05:00:00 14 8 Oeste 18 Noroeste 0 -- -- 78
2017-10-28 04:00:00 14.3 9 Noroeste 21 Noroeste 0 -- -- 77
2017-10-28 03:00:00 15 13 Noroeste 24 Noroeste 0 -- -- 75
2017-10-28 02:00:00 15 8 Oeste 23 Oeste 0 -- -- 78
2017-10-28 01:00:00 15.4 11 Oeste 21 Oeste 0 -- -- 74
2017-10-28 00:00:00 15.6 9 Oeste 21 Sudoeste 0 -- -- 73
2017-10-27 23:00:00 15.6 12 Oeste 24 Oeste 0 -- -- 74
2017-10-27 22:00:00 16 14 Oeste 23 Oeste 0 -- -- 73
2017-10-27 21:00:00 16.2 9 Oeste 20 Noroeste 0 -- -- 70
2017-10-27 20:00:00 16.5 10 Noroeste 19 Noroeste 0 -- -- 69
2017-10-27 19:00:00 17.7 12 Noroeste 25 Noroeste 0 -- -- 64
2017-10-27 18:00:00 19.3 13 Noroeste 28 Noroeste 0 -- -- 57
2017-10-27 17:00:00 20.1 14 Noroeste 25 Noroeste 0 -- -- 56
2017-10-27 16:00:00 20.7 13 Norte 30 Noroeste 0 -- -- 55
2017-10-27 15:00:00 20.6 12 Noroeste 24 Noroeste 0 -- -- 56
2017-10-27 14:00:00 20.2 11 Noroeste 25 Oeste 0 -- -- 57
2017-10-27 13:00:00 19.5 14 Oeste 24 Oeste 0 -- -- 56
2017-10-27 12:00:00 17.3 9 Oeste 21 Oeste 0 -- -- 59
2017-10-27 11:00:00 13.8 10 Oeste 15 Oeste 0 -- -- 67
2017-10-27 10:00:00 10.2 4 Noroeste 12 Noroeste 0 -- -- 82
2017-10-27 09:00:00 8.9 5 Oeste 12 Oeste 0 -- -- 84
2017-10-27 08:00:00 9.3 3 Oeste 9 Oeste 0 -- -- 83
2017-10-27 07:00:00 10.2 2 Sudoeste 4 Sudoeste 0 -- -- 79
2017-10-27 06:00:00 10.7 0 Calma 5 Sudoeste 0 -- -- 74
2017-10-27 05:00:00 10.9 0 Calma 6 Oeste 0 -- -- 76
2017-10-27 04:00:00 11.1 3 Sudoeste 12 Oeste 0 -- -- 75
2017-10-27 03:00:00 10.4 3 Oeste 9 Oeste 0 -- -- 81
2017-10-27 02:00:00 11.5 3 Oeste 6 Oeste 0 -- -- 78
2017-10-27 01:00:00 12.8 0 Calma 10 Oeste 0 -- -- 71
2017-10-27 00:00:00 14 2 Oeste 6 Sudoeste 0 -- -- 68
2017-10-26 23:00:00 16.1 0 Calma 12 Sudoeste 0 -- -- 61
2017-10-26 22:00:00 16.3 2 Sudoeste 7 Oeste 0 -- -- 59
2017-10-26 21:00:00 17.9 0 Calma 8 Sudoeste 0 -- -- 55
2017-10-26 20:00:00 20.5 5 Sudoeste 10 Sudoeste 0 -- -- 45
2017-10-26 19:00:00 24 4 Sudoeste 10 Sudoeste 0 -- -- 37
2017-10-26 18:00:00 26.9 3 Sudoeste 10 Noroeste 0 -- -- 33
2017-10-26 17:00:00 26.5 2 Oeste 9 Oeste 0 -- -- 33
2017-10-26 16:00:00 25.2 5 Oeste 13 Oeste 0 -- -- 35
2017-10-26 15:00:00 23.5 2 Nordeste 5 Noroeste 0 -- -- 36
2017-10-26 14:00:00 21.3 3 Oeste 6 Oeste 0 -- -- 43
2017-10-26 13:00:00 18.4 2 Oeste 7 Oeste 0 -- -- 53
2017-10-26 12:00:00 14.6 4 Noroeste 8 Noroeste 0 -- -- 69
2017-10-26 11:00:00 10.9 0 Calma 4 Noroeste 0 -- -- 85
2017-10-26 10:00:00 7.5 0 Calma 7 Noroeste 0 -- -- 97
2017-10-26 09:00:00 6.2 5 Oeste 9 Oeste 0 -- -- 96
2017-10-26 08:00:00 6.1 4 Sudoeste 8 Sudoeste 0 -- -- 95
2017-10-26 07:00:00 6.4 0 Calma 5 Oeste 0 -- -- 94
2017-10-26 06:00:00 7.1 0 Calma 8 Oeste 0 -- -- 94
2017-10-26 05:00:00 7.4 5 Oeste 11 Noroeste 0 -- -- 93
2017-10-26 04:00:00 8.2 3 Oeste 7 Oeste 0 -- -- 93
2017-10-26 03:00:00 8.6 2 Oeste 5 Sudoeste 0 -- -- 90
2017-10-26 02:00:00 9.3 0 Calma 5 Oeste 0 -- -- 86
2017-10-26 01:00:00 10.1 3 Sudoeste 6 Sudoeste 0 -- -- 82
2017-10-26 00:00:00 11.3 3 Sudoeste 8 Oeste 0 -- -- 77
2017-10-25 23:00:00 12.5 4 Oeste 8 Sudoeste 0 -- -- 72
2017-10-25 22:00:00 14.2 3 Sudoeste 8 Sudoeste 0 -- -- 64
2017-10-25 21:00:00 16.2 4 Sudeste 6 Este 0 -- -- 55
2017-10-25 20:00:00 18.3 3 Este 12 Este 0 -- -- 48
2017-10-25 19:00:00 21.1 7 Sudeste 18 Sudeste 0 -- -- 39
2017-10-25 18:00:00 22.4 9 Este 21 Este 0 -- -- 37
2017-10-25 17:00:00 22.6 8 Este 18 Sudeste 0 -- -- 37
2017-10-25 16:00:00 22.3 8 Este 15 Sudeste 0 -- -- 38
2017-10-25 15:00:00 21.3 8 Este 16 Este 0 -- -- 40
2017-10-25 14:00:00 20 7 Este 14 Este 0 -- -- 45
2017-10-25 13:00:00 17.1 2 Norte 9 Oeste 0 -- -- 52
2017-10-25 12:00:00 13.9 4 Oeste 8 Oeste 0 -- -- 68
2017-10-25 11:00:00 10.3 2 Oeste 4 Oeste 0 -- -- 85
2017-10-25 10:00:00 6.7 0 Calma 3 Noroeste 0 -- -- 98
2017-10-25 09:00:00 5.2 0 Calma 5 Oeste 0 -- -- 96
2017-10-25 08:00:00 5.4 2 Sudoeste 5 Sudoeste 0 -- -- 95
2017-10-25 07:00:00 5.8 0 Calma 3 Oeste 0 -- -- 94
2017-10-25 06:00:00 6.3 0 Calma 5 Oeste 0 -- -- 94
2017-10-25 05:00:00 6.9 3 Oeste 4 Oeste 0 -- -- 94
2017-10-25 04:00:00 7.4 0 Calma 4 Oeste 0 -- -- 92
2017-10-25 03:00:00 8 0 Calma 5 Sudoeste 0 -- -- 89
2017-10-25 02:00:00 8.9 0 Calma 6 Sudoeste 0 -- -- 83
2017-10-25 01:00:00 9.9 2 Sudoeste 5 Oeste 0 -- -- 82
2017-10-25 00:00:00 10.6 3 Sudoeste 7 Sudoeste 0 -- -- 76